Time,TemperatureF,DewpointF,PressureIn,WindDirection,WindDirectionDegrees,WindSpeedMPH,WindSpeedGustMPH,Humidity,HourlyPrecipIn,Conditions,Clouds,dailyrainin,SolarRadiationWatts/m^2,SoftwareType,DateUTC
2013-01-01 00:14:00,63.6,59.0,30.20,ESE,107,0.0,-999.0,84,-99.99,,,0.00,0,weatherlink.com 1.10,2013-01-01 05:14:00,
2013-01-01 00:29:00,63.8,59.0,30.19,ESE,107,0.0,-999.0,84,-99.99,,,0.00,0,weatherlink.com 1.10,2013-01-01 05:29:00,
2013-01-01 00:44:00,63.7,59.0,30.19,ESE,107,0.0,-999.0,84,-99.99,,,0.00,0,weatherlink.com 1.10,2013-01-01 05:44:00,
2013-01-01 00:59:00,63.7,59.0,30.19,ESE,107,1.0,-999.0,84,-99.99,,,0.00,0,weatherlink.com 1.10,2013-01-01 05:59:00,
2013-01-01 01:14:00,63.8,59.0,30.19,ESE,107,1.0,-999.0,85,-99.99,,,0.00,0,weatherlink.com 1.10,2013-01-01 06:14:00,
2013-01-01 01:29:00,63.9,59.0,30.19,ESE,107,1.0,-999.0,85,-99.99,,,0.00,0,weatherlink.com 1.10,2013-01-01 06:29:00,
2013-01-01 01:44:00,63.9,59.0,30.19,East,90,0.0,-999.0,85,-99.99,,,0.00,0,weatherlink.com 1.10,2013-01-01 06:44:00,
2013-01-01 01:59:00,64.0,59.0,30.18,East,89,0.0,-999.0,84,-99.99,,,0.00,0,weatherlink.com 1.10,2013-01-01 06:59:00,
2013-01-01 02:14:00,63.9,59.0,30.18,NE,46,1.0,-999.0,85,-99.99,,,0.00,0,weatherlink.com 1.10,2013-01-01 07:14:00,
2013-01-01 02:29:00,63.8,59.0,30.18,ENE,62,0.0,-999.0,85,-99.99,,,0.00,0,weatherlink.com 1.10,2013-01-01 07:29:00,
2013-01-01 02:44:00,63.6,59.0,30.17,ENE,68,0.0,-999.0,85,-99.99,,,0.00,0,weatherlink.com 1.10,2013-01-01 07:44:00,
2013-01-01 02:59:00,63.4,59.0,30.17,ENE,61,0.0,-999.0,86,-99.99,,,0.00,0,weatherlink.com 1.10,2013-01-01 07:59:00,
2013-01-01 03:14:00,63.1,59.0,30.17,ENE,68,0.0,-999.0,86,-99.99,,,0.00,0,weatherlink.com 1.10,2013-01-01 08:14:00,
2013-01-01 03:29:00,62.9,59.0,30.17,ENE,74,0.0,-999.0,86,-99.99,,,0.00,0,weatherlink.com 1.10,2013-01-01 08:29:00,
2013-01-01 03:44:00,63.0,59.0,30.17,ENE,69,0.0,-999.0,86,-99.99,,,0.00,0,weatherlink.com 1.10,2013-01-01 08:44:00,
2013-01-01 03:59:00,63.0,59.0,30.16,NE,46,1.0,-999.0,86,-99.99,,,0.00,0,weatherlink.com 1.10,2013-01-01 08:59:00,
2013-01-01 04:14:00,62.8,59.0,30.16,ENE,69,0.0,-999.0,87,-99.99,,,0.00,0,weatherlink.com 1.10,2013-01-01 09:14:00,
2013-01-01 04:29:00,62.7,59.0,30.15,ENE,65,0.0,-999.0,87,-99.99,,,0.00,0,weatherlink.com 1.10,2013-01-01 09:29:00,
2013-01-01 04:44:00,62.6,59.0,30.15,ENE,65,0.0,-999.0,87,-99.99,,,0.00,0,weatherlink.com 1.10,2013-01-01 09:44:00,
2013-01-01 04:59:00,62.8,59.0,30.15,ENE,65,0.0,-999.0,87,-99.99,,,0.00,0,weatherlink.com 1.10,2013-01-01 09:59:00,
2013-01-01 05:14:00,62.9,59.0,30.14,ENE,75,2.0,-999.0,86,-99.99,,,0.00,0,weatherlink.com 1.10,2013-01-01 10:14:00,
2013-01-01 05:29:00,63.5,59.0,30.14,East,83,0.0,-999.0,85,-99.99,,,0.00,0,weatherlink.com 1.10,2013-01-01 10:29:00,
2013-01-01 05:44:00,63.8,59.0,30.14,East,101,0.0,-999.0,85,-99.99,,,0.00,0,weatherlink.com 1.10,2013-01-01 10:44:00,
2013-01-01 05:59:00,63.8,59.0,30.14,East,85,0.0,-999.0,85,-99.99,,,0.00,0,weatherlink.com 1.10,2013-01-01 10:59:00,
2013-01-01 06:14:00,63.8,59.0,30.14,East,85,0.0,-999.0,85,-99.99,,,0.00,0,weatherlink.com 1.10,2013-01-01 11:14:00,
2013-01-01 06:29:00,63.8,59.0,30.14,East,86,0.0,-999.0,85,-99.99,,,0.00,0,weatherlink.com 1.10,2013-01-01 11:29:00,
2013-01-01 06:44:00,63.6,59.0,30.14,East,86,0.0,-999.0,85,-99.99,,,0.00,0,weatherlink.com 1.10,2013-01-01 11:44:00,
2013-01-01 06:59:00,63.6,59.0,30.14,East,90,0.0,-999.0,85,-99.99,,,0.00,0,weatherlink.com 1.10,2013-01-01 11:59:00,
2013-01-01 07:14:00,63.6,59.0,30.14,East,93,1.0,-999.0,85,-99.99,,,0.00,5,weatherlink.com 1.10,2013-01-01 12:14:00,
2013-01-01 07:29:00,63.7,59.0,30.14,East,97,0.0,-999.0,85,-99.99,,,0.00,18,weatherlink.com 1.10,2013-01-01 12:29:00,
2013-01-01 07:44:00,64.1,60.0,30.14,SE,129,4.0,-999.0,85,-99.99,,,0.00,44,weatherlink.com 1.10,2013-01-01 12:44:00,
2013-01-01 07:59:00,65.4,60.0,30.15,SE,126,1.0,-999.0,83,-99.99,,,0.00,72,weatherlink.com 1.10,2013-01-01 12:59:00,
2013-01-01 08:14:00,66.2,60.0,30.15,East,98,0.0,-999.0,81,-99.99,,,0.00,109,weatherlink.com 1.10,2013-01-01 13:14:00,
2013-01-01 08:29:00,67.6,61.0,30.15,East,101,1.0,-999.0,79,-99.99,,,0.00,167,weatherlink.com 1.10,2013-01-01 13:29:00,
2013-01-01 08:44:00,68.8,62.0,30.16,ESE,118,0.0,-999.0,78,-99.99,,,0.00,214,weatherlink.com 1.10,2013-01-01 13:44:00,
2013-01-01 08:59:00,70.4,62.0,30.16,ESE,115,1.0,-999.0,75,-99.99,,,0.00,267,weatherlink.com 1.10,2013-01-01 13:59:00,
2013-01-01 09:14:00,71.9,62.0,30.17,ESE,112,0.0,-999.0,72,-99.99,,,0.00,311,weatherlink.com 1.10,2013-01-01 14:14:00,
2013-01-01 09:29:00,72.6,63.0,30.17,ESE,117,0.0,-999.0,71,-99.99,,,0.00,297,weatherlink.com 1.10,2013-01-01 14:29:00,
2013-01-01 09:44:00,73.5,63.0,30.17,ESE,117,0.0,-999.0,70,-99.99,,,0.00,292,weatherlink.com 1.10,2013-01-01 14:44:00,
2013-01-01 09:59:00,74.8,64.0,30.16,ESE,108,5.0,-999.0,68,-99.99,,,0.00,446,weatherlink.com 1.10,2013-01-01 14:59:00,
2013-01-01 10:14:00,75.5,63.0,30.16,ESE,109,5.0,-999.0,65,-99.99,,,0.00,475,weatherlink.com 1.10,2013-01-01 15:14:00,
2013-01-01 10:29:00,75.5,63.0,30.16,ESE,122,4.0,-999.0,65,-99.99,,,0.00,506,weatherlink.com 1.10,2013-01-01 15:29:00,
2013-01-01 10:44:00,75.8,64.0,30.16,ESE,117,0.0,-999.0,66,-99.99,,,0.00,531,weatherlink.com 1.10,2013-01-01 15:44:00,
2013-01-01 10:59:00,76.3,63.0,30.15,East,98,1.0,-999.0,64,-99.99,,,0.00,566,weatherlink.com 1.10,2013-01-01 15:59:00,
2013-01-01 11:14:00,76.4,63.0,30.14,East,92,0.0,-999.0,64,-99.99,,,0.00,582,weatherlink.com 1.10,2013-01-01 16:14:00,
2013-01-01 11:29:00,76.6,63.0,30.13,SSW,211,0.0,-999.0,63,-99.99,,,0.00,603,weatherlink.com 1.10,2013-01-01 16:29:00,
2013-01-01 11:44:00,76.7,63.0,30.13,ESE,116,5.0,-999.0,63,-99.99,,,0.00,621,weatherlink.com 1.10,2013-01-01 16:44:00,
2013-01-01 11:59:00,76.9,63.0,30.12,SE,136,0.0,-999.0,62,-99.99,,,0.00,631,weatherlink.com 1.10,2013-01-01 16:59:00,
2013-01-01 12:14:00,77.7,63.0,30.11,South,188,2.0,-999.0,61,-99.99,,,0.00,640,weatherlink.com 1.10,2013-01-01 17:14:00,
2013-01-01 12:29:00,78.2,63.0,30.11,East,101,6.0,-999.0,60,-99.99,,,0.00,643,weatherlink.com 1.10,2013-01-01 17:29:00,
2013-01-01 12:44:00,78.5,63.0,30.10,SE,134,1.0,-999.0,60,-99.99,,,0.00,633,weatherlink.com 1.10,2013-01-01 17:44:00,
2013-01-01 12:59:00,78.3,63.0,30.09,East,98,2.0,-999.0,60,-99.99,,,0.00,628,weatherlink.com 1.10,2013-01-01 17:59:00,
2013-01-01 13:14:00,78.9,64.0,30.08,SSE,162,5.0,-999.0,60,-99.99,,,0.00,621,weatherlink.com 1.10,2013-01-01 18:14:00,
2013-01-01 13:29:00,78.9,64.0,30.07,South,180,0.0,-999.0,60,-99.99,,,0.00,605,weatherlink.com 1.10,2013-01-01 18:29:00,
2013-01-01 13:44:00,79.6,63.0,30.07,ESE,114,1.0,-999.0,58,-99.99,,,0.00,587,weatherlink.com 1.10,2013-01-01 18:44:00,
2013-01-01 13:59:00,79.6,63.0,30.06,South,189,1.0,-999.0,58,-99.99,,,0.00,566,weatherlink.com 1.10,2013-01-01 18:59:00,
2013-01-01 14:14:00,79.3,64.0,30.05,SSE,150,0.0,-999.0,60,-99.99,,,0.00,543,weatherlink.com 1.10,2013-01-01 19:14:00,
2013-01-01 14:29:00,79.4,65.0,30.05,SSW,202,1.0,-999.0,61,-99.99,,,0.00,510,weatherlink.com 1.10,2013-01-01 19:29:00,
2013-01-01 14:44:00,79.8,65.0,30.06,SSE,152,1.0,-999.0,61,-99.99,,,0.00,480,weatherlink.com 1.10,2013-01-01 19:44:00,
2013-01-01 14:59:00,79.1,65.0,30.06,ESE,116,1.0,-999.0,62,-99.99,,,0.00,454,weatherlink.com 1.10,2013-01-01 19:59:00,
2013-01-01 15:14:00,79.1,65.0,30.05,SSE,154,0.0,-999.0,63,-99.99,,,0.00,406,weatherlink.com 1.10,2013-01-01 20:14:00,
2013-01-01 15:29:00,79.4,66.0,30.06,SSE,149,0.0,-999.0,63,-99.99,,,0.00,232,weatherlink.com 1.10,2013-01-01 20:29:00,
2013-01-01 15:44:00,78.8,66.0,30.06,WSW,241,0.0,-999.0,65,-99.99,,,0.00,366,weatherlink.com 1.10,2013-01-01 20:44:00,
2013-01-01 15:59:00,76.9,66.0,30.06,ESE,102,0.0,-999.0,68,-99.99,,,0.00,156,weatherlink.com 1.10,2013-01-01 20:59:00,
2013-01-01 16:14:00,76.0,66.0,30.06,South,180,0.0,-999.0,70,-99.99,,,0.00,121,weatherlink.com 1.10,2013-01-01 21:14:00,
2013-01-01 16:29:00,75.5,65.0,30.06,West,272,0.0,-999.0,71,-99.99,,,0.00,120,weatherlink.com 1.10,2013-01-01 21:29:00,
2013-01-01 16:44:00,75.2,65.0,30.06,SE,145,0.0,-999.0,71,-99.99,,,0.00,86,weatherlink.com 1.10,2013-01-01 21:44:00,
2013-01-01 16:59:00,74.7,66.0,30.06,South,175,1.0,-999.0,73,-99.99,,,0.00,77,weatherlink.com 1.10,2013-01-01 21:59:00,
2013-01-01 17:14:00,74.1,65.0,30.05,SSW,195,0.0,-999.0,74,-99.99,,,0.00,49,weatherlink.com 1.10,2013-01-01 22:14:00,
2013-01-01 17:29:00,73.3,65.0,30.05,SSE,162,0.0,-999.0,75,-99.99,,,0.00,19,weatherlink.com 1.10,2013-01-01 22:29:00,
2013-01-01 17:44:00,72.2,65.0,30.05,SE,146,0.0,-999.0,77,-99.99,,,0.00,9,weatherlink.com 1.10,2013-01-01 22:44:00,
2013-01-01 17:59:00,71.3,65.0,30.05,SE,146,0.0,-999.0,80,-99.99,,,0.00,5,weatherlink.com 1.10,2013-01-01 22:59:00,
2013-01-01 18:14:00,70.3,64.0,30.05,SE,146,0.0,-999.0,81,-99.99,,,0.00,0,weatherlink.com 1.10,2013-01-01 23:14:00,
2013-01-01 18:29:00,69.5,64.0,30.05,SE,146,0.0,-999.0,83,-99.99,,,0.00,0,weatherlink.com 1.10,2013-01-01 23:29:00,
2013-01-01 18:44:00,68.9,64.0,30.06,SE,146,0.0,-999.0,85,-99.99,,,0.00,0,weatherlink.com 1.10,2013-01-01 23:44:00,
2013-01-01 18:59:00,68.2,64.0,30.06,SE,146,0.0,-999.0,86,-99.99,,,0.00,0,weatherlink.com 1.10,2013-01-01 23:59:00,
2013-01-01 19:14:00,67.6,64.0,30.06,SE,146,0.0,-999.0,87,-99.99,,,0.00,0,weatherlink.com 1.10,2013-01-02 00:14:00,
2013-01-01 19:29:00,67.1,64.0,30.06,SE,146,0.0,-999.0,89,-99.99,,,0.00,0,weatherlink.com 1.10,2013-01-02 00:29:00,
2013-01-01 19:44:00,66.8,64.0,30.07,SE,146,0.0,-999.0,89,-99.99,,,0.00,0,weatherlink.com 1.10,2013-01-02 00:44:00,
2013-01-01 19:59:00,66.4,64.0,30.07,SE,146,0.0,-999.0,90,-99.99,,,0.00,0,weatherlink.com 1.10,2013-01-02 00:59:00,
2013-01-01 20:14:00,66.0,63.0,30.07,SE,146,0.0,-999.0,91,-99.99,,,0.00,0,weatherlink.com 1.10,2013-01-02 01:14:00,
2013-01-01 20:29:00,65.9,64.0,30.07,SE,146,0.0,-999.0,92,-99.99,,,0.00,0,weatherlink.com 1.10,2013-01-02 01:29:00,
2013-01-01 20:44:00,65.6,63.0,30.08,SE,146,0.0,-999.0,92,-99.99,,,0.00,0,weatherlink.com 1.10,2013-01-02 01:44:00,
2013-01-01 20:59:00,65.3,63.0,30.08,SE,146,0.0,-999.0,92,-99.99,,,0.00,0,weatherlink.com 1.10,2013-01-02 01:59:00,
2013-01-01 21:14:00,65.1,63.0,30.08,SE,146,0.0,-999.0,92,-99.99,,,0.00,0,weatherlink.com 1.10,2013-01-02 02:14:00,
2013-01-01 21:29:00,64.9,63.0,30.08,SE,146,0.0,-999.0,93,-99.99,,,0.00,0,weatherlink.com 1.10,2013-01-02 02:29:00,
2013-01-01 21:44:00,64.9,63.0,30.08,SE,146,0.0,-999.0,93,-99.99,,,0.00,0,weatherlink.com 1.10,2013-01-02 02:44:00,
2013-01-01 21:59:00,64.6,63.0,30.08,SE,146,0.0,-999.0,93,-99.99,,,0.00,0,weatherlink.com 1.10,2013-01-02 02:59:00,
2013-01-01 22:14:00,64.2,62.0,30.08,SE,146,0.0,-999.0,93,-99.99,,,0.00,0,weatherlink.com 1.10,2013-01-02 03:14:00,
2013-01-01 22:29:00,63.9,62.0,30.08,SE,146,0.0,-999.0,93,-99.99,,,0.00,0,weatherlink.com 1.10,2013-01-02 03:29:00,
2013-01-01 22:44:00,64.0,62.0,30.08,SE,146,0.0,-999.0,94,-99.99,,,0.00,0,weatherlink.com 1.10,2013-01-02 03:44:00,
2013-01-01 22:59:00,63.8,62.0,30.08,SE,146,0.0,-999.0,94,-99.99,,,0.00,0,weatherlink.com 1.10,2013-01-02 03:59:00,
2013-01-01 23:14:00,63.6,62.0,30.07,SE,146,0.0,-999.0,94,-99.99,,,0.00,0,weatherlink.com 1.10,2013-01-02 04:14:00,
2013-01-01 23:29:00,63.7,62.0,30.07,SE,146,0.0,-999.0,95,-99.99,,,0.00,0,weatherlink.com 1.10,2013-01-02 04:29:00,
2013-01-01 23:44:00,64.0,63.0,30.07,SE,146,0.0,-999.0,95,-99.99,,,0.00,0,weatherlink.com 1.10,2013-01-02 04:44:00,
2013-01-01 23:59:00,63.9,63.0,30.06,SE,146,0.0,-999.0,95,-99.99,,,0.00,0,weatherlink.com 1.10,2013-01-02 04:59:00,